Terminal Aerodrome Forecast
Issued by NWS Topeka, KS

Home | Current Version | Previous Version | Graphics & Text | Print | Product List | Glossary On
Versions: 1 2 3 4 5 6 7 8 9 10 11 12 13 14 15 16 17 18 19
380
FTUS43 KTOP 160530
TAFTOP
TAF
KTOP 160530Z 1606/1706 VRB03KT P6SM SCT250
     FM161500 14011KT P6SM FEW250
     FM170400 16009KT P6SM BKN015=

USA.gov is the U.S. government's official web portal to all federal, state and local government web resources and services.